Randall, Iowa
Current Conditions -  °F | °C
As of 11:53 AM on Friday 31 Oct 2014 (Local Time) from KAMW Reporting Station
Clear Clear  
Wind Chill: 26°   Ceiling: Unl
Heat Index: 36°   Visibility: 10mi
Dew Point: 19°   Wind: 18mph
Humidity: 50%   Direction: 350°N
Pressure: 30.51"   Gusts: NA
Location:  42.24°N, 93.6°W
Report Text: KAMW 311653Z AUTO 35016KT 10SM CLR 02/M07 A3051 RMK AO2 SLP338 T00221072
Loading
Personal Weather Stations






























Interactive Weather Map
Tropical Storm Tracking
New forecast layout! Learn more

10-Day Weather Forecast

Advertisements
Track Severe Weather on mobile